createdAt,value
2019-04-05T00:00:08.624Z,13.00
2019-04-05T00:02:36.433Z,13.10
2019-04-05T00:05:04.751Z,13.00
2019-04-05T00:07:32.575Z,13.10
2019-04-05T00:10:00.422Z,13.00
2019-04-05T00:12:28.370Z,13.00
2019-04-05T00:14:56.153Z,12.90
2019-04-05T00:17:24.042Z,12.90
2019-04-05T00:19:51.896Z,12.80
2019-04-05T00:22:19.779Z,12.80
2019-04-05T00:24:47.646Z,12.80
2019-04-05T00:27:15.493Z,12.90
2019-04-05T00:29:43.386Z,12.90
2019-04-05T00:32:11.202Z,12.90
2019-04-05T00:34:38.995Z,12.90
2019-04-05T00:37:06.859Z,12.80
2019-04-05T00:39:34.718Z,12.80
2019-04-05T00:42:02.632Z,12.80
2019-04-05T00:44:30.409Z,12.70
2019-04-05T00:46:58.250Z,12.60
2019-04-05T00:49:26.111Z,12.60
2019-04-05T00:51:53.949Z,12.60
2019-04-05T00:54:21.863Z,12.60
2019-04-05T00:56:49.689Z,12.60
2019-04-05T00:59:17.592Z,12.60
2019-04-05T01:01:45.371Z,12.60
2019-04-05T01:04:13.563Z,12.50
2019-04-05T01:06:41.335Z,12.60
2019-04-05T01:09:09.344Z,12.60
2019-04-05T01:11:37.462Z,12.60
2019-04-05T01:14:05.371Z,12.50
2019-04-05T01:16:33.438Z,12.50
2019-04-05T01:19:03.944Z,12.50
2019-04-05T01:21:33.277Z,12.40
2019-04-05T01:24:02.111Z,12.30
2019-04-05T01:26:30.253Z,12.30
2019-04-05T01:28:58.126Z,12.20
2019-04-05T01:31:26.051Z,12.20
2019-04-05T01:33:53.942Z,12.20
2019-04-05T01:36:21.723Z,12.20
2019-04-05T01:38:49.512Z,12.10
2019-04-05T01:41:17.550Z,12.20
2019-04-05T01:43:45.436Z,12.10
2019-04-05T01:46:13.376Z,12.10
2019-04-05T01:48:41.294Z,12.10
2019-04-05T01:51:09.396Z,12.00
2019-04-05T01:53:37.220Z,12.00
2019-04-05T01:56:05.058Z,12.00
2019-04-05T01:58:32.943Z,12.00
2019-04-05T02:01:00.823Z,12.00
2019-04-05T02:03:28.677Z,12.00
2019-04-05T02:05:56.546Z,12.00
2019-04-05T02:08:24.883Z,12.00
2019-04-05T02:10:53.162Z,11.90
2019-04-05T02:13:21.269Z,11.90
2019-04-05T02:15:49.420Z,11.90
2019-04-05T02:18:17.194Z,11.80
2019-04-05T02:20:45.164Z,11.80
2019-04-05T02:23:13.204Z,11.80
2019-04-05T02:25:41.027Z,11.80
2019-04-05T02:28:08.951Z,11.70
2019-04-05T02:30:36.776Z,11.70
2019-04-05T02:33:04.611Z,11.70
2019-04-05T02:35:32.496Z,11.70
2019-04-05T02:38:00.734Z,11.60
2019-04-05T02:40:29.106Z,11.70
2019-04-05T02:42:58.085Z,11.70
2019-04-05T02:45:27.386Z,11.60
2019-04-05T02:47:56.741Z,11.60
2019-04-05T02:50:26.193Z,11.50
2019-04-05T02:52:55.721Z,11.50
2019-04-05T02:55:24.060Z,11.50
2019-04-05T02:57:52.059Z,11.40
2019-04-05T03:00:20.475Z,11.40
2019-04-05T03:02:48.417Z,11.40
2019-04-05T03:05:16.220Z,11.50
2019-04-05T03:07:44.089Z,11.40
2019-04-05T03:10:31.241Z,11.40
2019-04-05T03:12:59.240Z,11.40
2019-04-05T03:15:27.205Z,11.30
2019-04-05T03:17:55.175Z,11.30
2019-04-05T03:20:23.049Z,11.20
2019-04-05T03:22:50.906Z,11.30
2019-04-05T03:25:19.001Z,11.30
2019-04-05T03:27:47.043Z,11.20
2019-04-05T03:30:14.896Z,11.20
2019-04-05T03:32:43.197Z,11.10
2019-04-05T03:35:11.169Z,11.10
2019-04-05T03:37:39.036Z,11.10
2019-04-05T03:40:07.212Z,11.00
2019-04-05T03:42:35.310Z,11.00
2019-04-05T03:45:03.258Z,11.00
2019-04-05T03:47:31.238Z,10.90
2019-04-05T03:49:59.125Z,10.90
2019-04-05T03:52:27.077Z,10.90
2019-04-05T03:54:55.132Z,10.90
2019-04-05T03:57:23.102Z,10.90
2019-04-05T03:59:51.170Z,10.90
2019-04-05T04:02:19.139Z,10.80
2019-04-05T04:04:46.932Z,10.80
2019-04-05T04:07:14.940Z,10.70
2019-04-05T04:09:43.140Z,10.70
2019-04-05T04:12:11.115Z,10.70
2019-04-05T04:14:39.163Z,10.60
2019-04-05T04:17:12.630Z,10.60
2019-04-05T04:19:37.116Z,10.50
2019-04-05T04:22:10.980Z,10.50
2019-04-05T04:24:38.961Z,10.40
2019-04-05T04:27:07.449Z,10.40
2019-04-05T04:29:35.230Z,10.40
2019-04-05T04:32:03.070Z,10.30
2019-04-05T04:34:31.366Z,10.40
2019-04-05T04:36:59.157Z,10.40
2019-04-05T04:39:27.042Z,10.40
2019-04-05T04:41:54.972Z,10.30
2019-04-05T04:44:23.217Z,10.40
2019-04-05T04:46:51.044Z,10.30
2019-04-05T04:49:19.098Z,10.40
2019-04-05T04:51:47.360Z,10.40
2019-04-05T04:54:15.230Z,10.30
2019-04-05T04:56:43.395Z,10.40
2019-04-05T04:59:11.177Z,10.40
2019-04-05T05:01:39.133Z,10.50
2019-04-05T05:04:08.395Z,10.60
2019-04-05T05:06:36.341Z,10.60
2019-04-05T05:09:06.787Z,10.60
2019-04-05T05:11:34.700Z,10.70
2019-04-05T05:14:02.766Z,10.90
2019-04-05T05:16:30.561Z,10.90
2019-04-05T05:18:58.377Z,11.00
2019-04-05T05:21:26.144Z,11.00
2019-04-05T05:23:53.976Z,11.00
2019-04-05T05:26:21.985Z,11.10
2019-04-05T05:28:50.539Z,11.10
2019-04-05T05:31:18.554Z,11.20
2019-04-05T05:33:46.519Z,11.30
2019-04-05T05:36:14.598Z,11.40
2019-04-05T05:38:42.396Z,11.50
2019-04-05T05:41:10.240Z,11.60
2019-04-05T05:43:38.029Z,11.60
2019-04-05T05:46:05.960Z,11.80
2019-04-05T05:48:34.026Z,11.90
2019-04-05T05:51:01.798Z,11.90
2019-04-05T05:53:29.607Z,12.00
2019-04-05T05:55:57.383Z,12.10
2019-04-05T05:58:25.756Z,12.30
2019-04-05T06:00:54.282Z,12.40
2019-04-05T06:03:22.099Z,12.40
2019-04-05T06:05:58.356Z,12.50
2019-04-05T06:08:19.381Z,12.60
2019-04-05T06:10:47.514Z,12.60
2019-04-05T06:13:15.398Z,12.50
2019-04-05T06:15:43.153Z,12.60
2019-04-05T06:20:40.438Z,12.80
2019-04-05T06:23:08.318Z,12.80
2019-04-05T06:25:36.173Z,12.90
2019-04-05T06:28:03.963Z,12.90
2019-04-05T06:30:31.876Z,12.90
2019-04-05T06:32:59.669Z,13.00
2019-04-05T06:35:27.522Z,12.90
2019-04-05T06:35:39.711Z,12.70
2019-04-05T06:37:55.319Z,12.90
2019-04-05T06:40:23.430Z,12.90
2019-04-05T06:42:51.209Z,12.90
2019-04-05T06:45:19.011Z,12.90
2019-04-05T06:47:46.872Z,12.90
2019-04-05T06:50:14.917Z,12.80
2019-04-05T06:52:42.707Z,12.80
2019-04-05T06:55:10.583Z,12.90
2019-04-05T06:57:38.440Z,12.80
2019-04-05T07:00:06.629Z,12.90
2019-04-05T07:02:34.606Z,13.00
2019-04-05T07:05:02.485Z,13.00
2019-04-05T07:07:30.315Z,13.00
2019-04-05T07:09:59.600Z,13.10
2019-04-05T07:12:27.428Z,13.00
2019-04-05T07:14:56.341Z,13.00
2019-04-05T07:17:24.819Z,13.00
2019-04-05T07:19:52.645Z,13.00
2019-04-05T07:22:33.504Z,12.80
2019-04-05T07:24:50.041Z,12.60
2019-04-05T07:27:18.261Z,12.50
2019-04-05T07:29:46.170Z,12.30
2019-04-05T07:32:14.024Z,12.10
2019-04-05T07:34:44.946Z,12.00
2019-04-05T07:37:12.821Z,11.70
2019-04-05T07:39:42.048Z,11.50
2019-04-05T07:42:09.874Z,11.30
2019-04-05T07:44:37.671Z,11.30
2019-04-05T07:47:05.450Z,11.30
2019-04-05T07:49:33.321Z,11.40
2019-04-05T07:52:01.157Z,11.50
2019-04-05T07:54:29.038Z,11.50
2019-04-05T07:56:57.004Z,11.50
2019-04-05T07:59:24.906Z,11.60
2019-04-05T08:01:52.768Z,11.40
2019-04-05T08:04:20.725Z,11.20
2019-04-05T08:06:49.146Z,11.00
2019-04-05T08:09:17.950Z,10.80
2019-04-05T08:11:46.404Z,10.90
2019-04-05T08:14:17.979Z,10.80
2019-04-05T08:16:45.568Z,10.70
2019-04-05T08:19:13.520Z,10.60
2019-04-05T08:21:41.403Z,10.70
2019-04-05T08:24:09.460Z,10.70
2019-04-05T08:26:37.253Z,10.90
2019-04-05T08:29:05.186Z,11.10
2019-04-05T08:31:32.995Z,11.20
2019-04-05T08:34:01.001Z,11.40
2019-04-05T08:36:28.801Z,11.50
2019-04-05T08:38:56.659Z,11.50
2019-04-05T08:41:24.456Z,11.40
2019-04-05T08:43:52.243Z,11.40
2019-04-05T08:46:20.095Z,11.40
2019-04-05T08:48:47.972Z,11.50
2019-04-05T08:51:15.772Z,11.50
2019-04-05T08:53:43.562Z,11.40
2019-04-05T08:56:11.468Z,11.50
2019-04-05T08:58:39.313Z,11.70
2019-04-05T09:01:07.206Z,11.70
2019-04-05T09:03:34.984Z,11.80
2019-04-05T09:06:02.842Z,11.90
2019-04-05T09:08:30.672Z,12.00
2019-04-05T09:10:58.567Z,11.90
2019-04-05T09:13:26.420Z,12.00
2019-04-05T09:15:54.307Z,12.10
2019-04-05T09:18:22.152Z,12.20
2019-04-05T09:20:50.043Z,12.40
2019-04-05T09:23:17.891Z,12.40
2019-04-05T09:25:46.212Z,12.20
2019-04-05T09:28:14.386Z,12.10
2019-04-05T09:30:42.203Z,12.10
2019-04-05T09:33:09.972Z,12.10
2019-04-05T09:35:37.850Z,12.00
2019-04-05T09:38:05.665Z,11.80
2019-04-05T09:40:33.473Z,11.70
2019-04-05T09:43:01.494Z,11.60
2019-04-05T09:45:29.324Z,11.50
2019-04-05T09:47:57.166Z,11.50
2019-04-05T09:50:25.035Z,11.50
2019-04-05T09:52:52.945Z,11.50
2019-04-05T09:55:20.880Z,11.30
2019-04-05T09:57:48.792Z,11.40
2019-04-05T10:00:23.979Z,11.50
2019-04-05T10:02:51.974Z,11.50
2019-04-05T10:05:19.930Z,11.50
2019-04-05T10:07:54.972Z,11.60
2019-04-05T10:10:17.403Z,11.60
2019-04-05T10:12:45.404Z,11.50
2019-04-05T10:15:13.412Z,11.50
2019-04-05T10:17:41.236Z,11.50
2019-04-05T10:20:09.158Z,11.60
2019-04-05T10:22:37.797Z,11.60
2019-04-05T10:25:05.671Z,11.60
2019-04-05T10:27:33.789Z,11.60
2019-04-05T10:30:01.754Z,11.80
2019-04-05T10:32:29.774Z,11.90
2019-04-05T10:34:57.600Z,12.00
2019-04-05T10:37:25.386Z,12.00
2019-04-05T10:39:53.160Z,12.10
2019-04-05T10:42:29.066Z,12.10
2019-04-05T10:44:56.850Z,12.10
2019-04-05T10:47:24.731Z,12.10
2019-04-05T10:50:02.355Z,12.10
2019-04-05T10:52:22.214Z,12.10
2019-04-05T10:54:50.065Z,12.10
2019-04-05T10:57:17.870Z,12.20
2019-04-05T10:59:45.739Z,12.30
2019-04-05T11:02:14.475Z,12.40
2019-04-05T11:04:42.268Z,12.50
2019-04-05T11:07:10.150Z,12.60
2019-04-05T11:09:37.984Z,12.70
2019-04-05T11:12:08.663Z,12.70
2019-04-05T11:14:36.399Z,12.80
2019-04-05T11:17:05.042Z,13.00
2019-04-05T11:19:36.197Z,13.10
2019-04-05T11:22:02.718Z,13.10
2019-04-05T11:24:30.555Z,13.20
2019-04-05T11:26:58.495Z,13.40
2019-04-05T11:29:26.438Z,13.50
2019-04-05T11:31:57.226Z,13.70
2019-04-05T11:34:23.926Z,13.80
2019-04-05T11:36:52.054Z,14.00
2019-04-05T11:39:20.408Z,14.20
2019-04-05T11:41:50.078Z,14.20
2019-04-05T11:44:17.872Z,14.50
2019-04-05T11:46:49.138Z,14.60
2019-04-05T11:49:16.358Z,14.80
2019-04-05T11:51:44.230Z,14.90
2019-04-05T11:54:13.848Z,15.00
2019-04-05T11:56:42.070Z,15.20
2019-04-05T11:59:15.564Z,15.20
2019-04-05T12:01:51.163Z,15.30
2019-04-05T12:04:19.404Z,15.30
2019-04-05T12:06:47.206Z,15.60
2019-04-05T12:09:15.053Z,15.80
2019-04-05T12:11:46.281Z,15.80
2019-04-05T12:14:13.087Z,15.80
2019-04-05T12:16:40.938Z,15.90
2019-04-05T12:19:08.725Z,16.00
2019-04-05T12:21:36.607Z,16.20
2019-04-05T12:24:04.446Z,16.20
2019-04-05T12:26:32.473Z,16.10
2019-04-05T12:29:01.932Z,16.00
2019-04-05T12:31:29.772Z,16.00
2019-04-05T12:33:57.665Z,16.20
2019-04-05T12:36:25.897Z,16.10
2019-04-05T12:38:54.428Z,16.00
2019-04-05T12:41:22.293Z,16.20
2019-04-05T12:43:51.061Z,16.30
2019-04-05T12:46:18.969Z,16.30
2019-04-05T12:48:46.790Z,16.20
2019-04-05T12:51:15.673Z,16.10
2019-04-05T12:53:44.297Z,16.10
2019-04-05T12:56:12.136Z,16.10
2019-04-05T12:58:40.005Z,16.10
2019-04-05T13:01:08.463Z,16.10
2019-04-05T13:03:36.589Z,16.20
2019-04-05T13:06:04.762Z,16.30
2019-04-05T13:08:32.621Z,16.30
2019-04-05T13:11:00.488Z,16.30
2019-04-05T13:13:28.291Z,16.40
2019-04-05T13:15:59.061Z,16.40
2019-04-05T13:18:25.582Z,16.60
2019-04-05T13:20:53.429Z,16.60
2019-04-05T13:23:21.254Z,16.60
2019-04-05T13:25:49.208Z,16.60
2019-04-05T13:28:18.989Z,16.80
2019-04-05T13:30:48.459Z,16.90
2019-04-05T13:33:16.192Z,17.00
2019-04-05T13:35:44.078Z,17.00
2019-04-05T13:38:11.848Z,17.00
2019-04-05T13:40:39.653Z,17.10
2019-04-05T13:43:07.460Z,17.20
2019-04-05T13:45:36.348Z,17.30
2019-04-05T13:48:04.481Z,17.40
2019-04-05T13:50:32.328Z,17.50
2019-04-05T13:53:00.155Z,17.70
2019-04-05T13:55:28.044Z,17.80
2019-04-05T13:57:55.890Z,17.90
2019-04-05T14:00:24.475Z,17.90
2019-04-05T14:02:52.339Z,18.00
2019-04-05T14:05:22.295Z,18.00
2019-04-05T14:07:50.128Z,18.00
2019-04-05T14:10:18.327Z,18.00
2019-04-05T14:12:46.153Z,18.00
2019-04-05T14:15:15.984Z,18.00
2019-04-05T14:17:44.750Z,18.20
2019-04-05T14:20:13.125Z,18.30
2019-04-05T14:22:40.900Z,18.30
2019-04-05T14:25:09.350Z,18.20
2019-04-05T14:27:37.145Z,18.00
2019-04-05T14:30:05.372Z,17.90
2019-04-05T14:32:33.134Z,17.80
2019-04-05T14:35:00.950Z,17.80
2019-04-05T14:37:28.735Z,17.80
2019-04-05T14:39:56.605Z,17.70
2019-04-05T14:42:24.385Z,17.70
2019-04-05T14:44:52.194Z,17.80
2019-04-05T14:47:20.089Z,18.00
2019-04-05T14:49:47.991Z,18.10
2019-04-05T14:52:15.903Z,18.20
2019-04-05T14:54:43.689Z,18.40
2019-04-05T14:57:11.847Z,18.50
2019-04-05T14:59:39.637Z,18.60
2019-04-05T15:02:07.600Z,18.80
2019-04-05T15:04:35.501Z,18.90
2019-04-05T15:07:03.447Z,19.10
2019-04-05T15:09:31.301Z,19.00
2019-04-05T15:11:59.292Z,19.20
2019-04-05T15:14:27.536Z,19.30
2019-04-05T15:16:55.340Z,19.30
2019-04-05T15:19:23.170Z,19.50
2019-04-05T15:21:51.084Z,19.60
2019-04-05T15:24:18.986Z,19.60
2019-04-05T15:26:46.844Z,19.80
2019-04-05T15:29:14.625Z,19.70
2019-04-05T15:31:43.466Z,19.60
2019-04-05T15:34:11.309Z,19.70
2019-04-05T15:36:39.190Z,19.70
2019-04-05T15:39:08.076Z,19.70
2019-04-05T15:41:37.305Z,19.60
2019-04-05T15:44:05.586Z,19.50
2019-04-05T15:46:34.022Z,19.40
2019-04-05T15:49:01.991Z,19.30
2019-04-05T15:51:30.074Z,19.20
2019-04-05T15:53:59.508Z,19.10
2019-04-05T15:56:27.692Z,19.00
2019-04-05T15:58:55.608Z,19.40
2019-04-05T16:01:23.517Z,19.70
2019-04-05T16:03:51.430Z,19.90
2019-04-05T16:06:19.241Z,20.10
2019-04-05T16:08:47.100Z,19.90
2019-04-05T16:11:14.987Z,19.70
2019-04-05T16:13:42.828Z,19.50
2019-04-05T16:16:10.717Z,19.40
2019-04-05T16:18:38.589Z,19.40
2019-04-05T16:21:06.433Z,19.40
2019-04-05T16:23:34.227Z,19.40
2019-04-05T16:26:02.067Z,19.50
2019-04-05T16:28:29.942Z,19.70
2019-04-05T16:30:57.799Z,19.50
2019-04-05T16:33:25.686Z,19.00
2019-04-05T16:35:53.476Z,18.50
2019-04-05T16:38:21.500Z,18.00
2019-04-05T16:40:49.363Z,17.70
2019-04-05T16:43:17.269Z,17.40
2019-04-05T16:45:45.035Z,17.20
2019-04-05T16:48:12.826Z,17.10
2019-04-05T16:50:42.242Z,16.90
2019-04-05T16:53:10.165Z,16.70
2019-04-05T16:55:38.084Z,16.60
2019-04-05T16:58:05.891Z,16.40
2019-04-05T17:00:33.753Z,16.20
2019-04-05T17:03:01.624Z,16.20
2019-04-05T17:05:29.481Z,16.30
2019-04-05T17:07:57.367Z,16.20
2019-04-05T17:10:25.507Z,16.10
2019-04-05T17:12:53.404Z,16.00
2019-04-05T17:15:21.263Z,15.80
2019-04-05T17:17:49.150Z,15.70
2019-04-05T17:20:16.924Z,15.50
2019-04-05T17:22:57.178Z,15.30
2019-04-05T17:25:14.276Z,15.10
2019-04-05T17:27:42.153Z,14.80
2019-04-05T17:30:10.182Z,14.60
2019-04-05T17:32:38.073Z,14.50
2019-04-05T17:35:06.103Z,14.40
2019-04-05T17:37:33.926Z,14.20
2019-04-05T17:40:01.762Z,14.10
2019-04-05T17:42:29.560Z,14.00
2019-04-05T17:44:57.390Z,13.90
2019-04-05T17:47:25.285Z,13.80
2019-04-05T17:49:53.053Z,13.70
2019-04-05T17:52:20.930Z,13.60
2019-04-05T17:54:48.850Z,13.50
2019-04-05T17:57:16.818Z,13.50
2019-04-05T17:59:44.720Z,13.50
2019-04-05T18:02:12.599Z,13.40
2019-04-05T18:04:41.766Z,13.30
2019-04-05T18:07:09.571Z,13.40
2019-04-05T18:09:37.338Z,13.40
2019-04-05T18:12:05.479Z,13.40
2019-04-05T18:14:33.341Z,13.30
2019-04-05T18:17:01.229Z,13.30
2019-04-05T18:19:29.087Z,13.30
2019-04-05T18:22:00.894Z,13.30
2019-04-05T18:24:28.701Z,13.30
2019-04-05T18:26:56.558Z,13.30
2019-04-05T18:29:24.484Z,13.20
2019-04-05T18:31:52.319Z,13.10
2019-04-05T18:34:20.201Z,13.10
2019-04-05T18:36:48.324Z,13.00
2019-04-05T18:39:16.146Z,12.90
2019-04-05T18:41:44.255Z,12.80
2019-04-05T18:44:12.075Z,12.80
2019-04-05T18:46:39.928Z,12.70
2019-04-05T18:49:07.816Z,12.70
2019-04-05T18:51:35.643Z,12.70
2019-04-05T18:54:03.727Z,12.80
2019-04-05T18:56:31.595Z,12.80
2019-04-05T18:58:59.400Z,12.70
2019-04-05T19:01:27.247Z,12.70
2019-04-05T19:03:55.115Z,12.70
2019-04-05T19:06:22.956Z,12.80
2019-04-05T19:08:50.744Z,12.70
2019-04-05T19:11:18.869Z,12.70
2019-04-05T19:14:00.177Z,12.70
2019-04-05T19:16:16.259Z,12.70
2019-04-05T19:18:44.858Z,12.70
2019-04-05T19:21:12.735Z,12.60
2019-04-05T19:23:50.159Z,12.60
2019-04-05T19:26:10.194Z,12.50
2019-04-05T19:28:38.062Z,12.50
2019-04-05T19:48:35.412Z,12.20
2019-04-05T19:51:04.964Z,12.20
2019-04-05T19:53:32.872Z,12.20
2019-04-05T19:56:00.795Z,12.20
2019-04-05T19:58:29.059Z,12.20
2019-04-05T20:00:59.160Z,12.20
2019-04-05T20:03:26.844Z,12.20
2019-04-05T20:05:54.767Z,12.20
2019-04-05T20:08:22.595Z,12.10
2019-04-05T20:10:50.643Z,12.10
2019-04-05T20:13:18.417Z,12.10
2019-04-05T20:15:47.154Z,12.00
2019-04-05T20:18:14.983Z,12.00
2019-04-05T20:20:43.881Z,12.00
2019-04-05T20:23:11.735Z,12.00
2019-04-05T20:25:39.697Z,12.00
2019-04-05T20:28:07.461Z,12.00
2019-04-05T20:30:35.370Z,12.00
2019-04-05T20:33:03.158Z,12.00
2019-04-05T20:35:31.069Z,11.90
2019-04-05T20:37:58.979Z,11.90
2019-04-05T20:40:26.812Z,11.90
2019-04-05T20:42:54.694Z,11.80
2019-04-05T20:45:22.545Z,11.80
2019-04-05T20:47:51.355Z,11.80
2019-04-05T20:50:19.194Z,11.80
2019-04-05T20:52:47.263Z,11.80
2019-04-05T20:55:15.606Z,11.70
2019-04-05T20:57:43.440Z,11.70
2019-04-05T21:00:12.596Z,11.70
2019-04-05T21:02:40.401Z,11.80
2019-04-05T21:05:08.327Z,11.80
2019-04-05T21:07:36.143Z,11.70
2019-04-05T21:10:04.612Z,11.70
2019-04-05T21:12:32.490Z,11.70
2019-04-05T21:15:00.326Z,11.70
2019-04-05T21:17:29.924Z,11.70
2019-04-05T21:19:57.803Z,11.70
2019-04-05T21:22:25.586Z,11.80
2019-04-05T21:24:53.450Z,11.80
2019-04-05T21:27:21.419Z,11.80
2019-04-05T21:29:49.269Z,11.80
2019-04-05T21:32:17.162Z,11.70
2019-04-05T21:34:45.020Z,11.80
2019-04-05T21:37:12.961Z,11.80
2019-04-05T21:39:41.710Z,11.80
2019-04-05T21:42:09.562Z,11.70
2019-04-05T21:44:38.418Z,11.70
2019-04-05T21:47:06.419Z,11.60
2019-04-05T21:49:34.207Z,11.60
2019-04-05T21:52:02.046Z,11.50
2019-04-05T21:54:29.904Z,11.50
2019-04-05T21:56:58.029Z,11.50
2019-04-05T21:59:25.869Z,11.40
2019-04-05T22:01:53.996Z,11.40
2019-04-05T22:04:21.805Z,11.30
2019-04-05T22:06:49.656Z,11.30
2019-04-05T22:09:17.535Z,11.20
2019-04-05T22:11:45.384Z,11.20
2019-04-05T22:14:13.265Z,11.20
2019-04-05T22:16:41.122Z,11.10
2019-04-05T22:19:08.997Z,11.00
2019-04-05T22:21:36.902Z,11.00
2019-04-05T22:24:04.748Z,11.00
2019-04-05T22:26:32.570Z,11.00
2019-04-05T22:29:00.465Z,10.90
2019-04-05T22:31:28.314Z,10.80
2019-04-05T22:33:56.212Z,10.80
2019-04-05T22:36:24.060Z,10.80
2019-04-05T22:38:52.283Z,10.70
2019-04-05T22:41:20.092Z,10.70
2019-04-05T22:43:48.016Z,10.70
2019-04-05T22:46:15.843Z,10.70
2019-04-05T22:48:43.790Z,10.70
2019-04-05T22:51:11.934Z,10.60
2019-04-05T22:53:39.754Z,10.60
2019-04-05T22:56:07.622Z,10.60
2019-04-05T22:58:35.519Z,10.60
2019-04-05T23:01:03.705Z,10.50
2019-04-05T23:03:31.543Z,10.50
2019-04-05T23:05:59.388Z,10.40
2019-04-05T23:08:27.267Z,10.40
2019-04-05T23:10:55.127Z,10.40
2019-04-05T23:13:23.011Z,10.50
2019-04-05T23:15:50.864Z,10.50
2019-04-05T23:18:18.755Z,10.50
2019-04-05T23:20:46.600Z,10.50
2019-04-05T23:23:14.469Z,10.60
2019-04-05T23:25:42.599Z,10.60
2019-04-05T23:28:10.433Z,10.60
2019-04-05T23:30:38.265Z,10.60
2019-04-05T23:33:06.133Z,10.60
2019-04-05T23:35:34.021Z,10.60
2019-04-05T23:38:02.221Z,10.60
2019-04-05T23:40:30.071Z,10.60
2019-04-05T23:42:57.919Z,10.50
2019-04-05T23:45:25.716Z,10.50
2019-04-05T23:47:53.546Z,10.50
2019-04-05T23:50:21.448Z,10.50
2019-04-05T23:52:49.764Z,10.50
2019-04-05T23:55:17.570Z,10.50
2019-04-05T23:57:45.468Z,10.50
